Time;durP1;ratioP1;P1;durP2;ratioP2;P2;SDS_P1;SDS_P2;PMS_P1;PMS_P2;Temp;Humidity;BMP_temperature;BMP_pressure;BME280_temperature;BME280_humidity;BME280_pressure;Samples;Min_cycle;Max_cycle;Signal;HPM_P1;HPM_P2
2022/05/04 00:05:37;;;;;;;10.38;4.75;;;;;;;11.22;72.73;100541.53;18430819;32;20141;-65
2022/05/04 00:15:40;;;;;;;10.18;4.93;;;;;;;10.82;74.73;100559.88;18430493;32;20097;-65
2022/05/04 00:25:45;;;;;;;10.50;4.10;;;;;;;11.29;73.07;100554.59;18415747;32;20145;-65
2022/05/04 00:35:48;;;;;;;9.98;4.10;;;;;;;11.20;72.16;100551.12;18430295;32;20454;-65
2022/05/04 00:45:52;;;;;;;6.75;3.08;;;;;;;11.13;72.31;100564.19;18428708;32;20465;-65
2022/05/04 00:55:59;;;;;;;6.55;3.35;;;;;;;10.48;73.97;100565.09;18428381;32;20107;-65
2022/05/04 01:06:04;;;;;;;6.78;3.58;;;;;;;10.67;72.90;100573.78;18427496;32;20729;-65
2022/05/04 01:16:07;;;;;;;8.30;3.42;;;;;;;10.09;73.82;100572.81;18412656;32;20101;-65
2022/05/04 01:26:12;;;;;;;5.57;3.08;;;;;;;9.99;74.80;100575.41;18414885;32;20093;-65
2022/05/04 01:36:15;;;;;;;5.65;2.85;;;;;;;9.60;75.99;100579.59;18435669;32;20453;-65
2022/05/04 01:46:21;;;;;;;5.65;2.75;;;;;;;9.57;75.03;100562.19;18435112;32;20350;-65
2022/05/04 01:56:24;;;;;;;6.68;3.20;;;;;;;9.95;74.05;100560.62;18435216;32;20456;-65
2022/05/04 02:06:30;;;;;;;6.00;3.17;;;;;;;9.77;73.64;100564.03;18434542;32;20101;-65
2022/05/04 02:16:33;;;;;;;7.72;3.20;;;;;;;9.37;75.58;100554.31;18434124;32;20373;-65
2022/05/04 02:26:38;;;;;;;6.90;3.08;;;;;;;9.64;74.65;100555.31;18433995;32;20093;-65
2022/05/04 02:47:03;;;;;;;6.82;2.45;;;;;;;9.54;73.11;100561.34;18433702;32;20108;-65
2022/05/04 02:57:07;;;;;;;7.05;3.00;;;;;;;8.59;76.99;100585.00;18434499;32;20119;-65
2022/05/04 03:07:12;;;;;;;9.43;3.95;;;;;;;9.53;74.04;100573.50;18432965;32;20081;-65
2022/05/04 03:17:15;;;;;;;6.35;3.25;;;;;;;9.73;73.02;100570.09;18432939;32;20166;-65
2022/05/04 03:27:20;;;;;;;6.45;3.62;;;;;;;9.30;75.26;100576.84;18432395;32;20140;-65
2022/05/04 03:37:23;;;;;;;8.20;3.97;;;;;;;9.11;75.74;100577.59;18432441;32;20147;-65
2022/05/04 03:47:28;;;;;;;7.05;3.22;;;;;;;9.40;75.78;100587.34;18431639;32;20144;-65
2022/05/04 03:57:31;;;;;;;7.80;3.78;;;;;;;9.31;75.08;100582.91;18431344;32;20460;-65
2022/05/04 04:07:35;;;;;;;12.80;3.45;;;;;;;9.46;74.74;100589.94;18431015;32;20123;-65
2022/05/04 04:17:39;;;;;;;8.73;3.47;;;;;;;9.42;75.99;100603.84;18430327;32;20172;-65
2022/05/04 04:27:49;;;;;;;7.45;3.65;;;;;;;10.22;75.75;100610.25;18428011;32;20089;-65
2022/05/04 04:37:52;;;;;;;12.88;5.28;;;;;;;11.01;76.59;100617.34;18426738;32;20089;-66
2022/05/04 04:47:57;;;;;;;9.07;4.10;;;;;;;11.47;73.64;100627.69;18425921;32;20467;-65
2022/05/04 04:58:00;;;;;;;13.07;6.15;;;;;;;12.34;72.84;100632.66;18427593;32;20396;-66
2022/05/04 05:08:05;;;;;;;11.10;5.37;;;;;;;13.29;70.78;100623.19;18437116;32;20186;-66
2022/05/04 05:18:09;;;;;;;11.50;5.22;;;;;;;14.13;68.25;100624.84;18436113;32;20085;-66
2022/05/04 05:28:13;;;;;;;9.45;4.80;;;;;;;15.09;64.76;100636.59;18435714;32;20089;-65
2022/05/04 05:38:17;;;;;;;9.30;4.50;;;;;;;14.64;66.79;100637.25;18435278;32;20391;-65
2022/05/04 05:48:21;;;;;;;10.38;5.00;;;;;;;15.95;62.65;100648.16;18435041;32;20111;-65
2022/05/04 05:58:25;;;;;;;8.82;4.12;;;;;;;15.73;63.75;100647.69;18434190;32;20389;-66
2022/05/04 06:08:29;;;;;;;9.98;4.10;;;;;;;15.78;63.77;100646.69;18433527;32;20107;-66
2022/05/04 06:18:32;;;;;;;8.73;4.05;;;;;;;16.52;62.37;100658.38;18434350;32;20115;-66
2022/05/04 06:28:37;;;;;;;7.00;3.47;;;;;;;16.70;61.83;100668.50;18434176;32;20115;-66
2022/05/04 06:38:40;;;;;;;6.78;3.30;;;;;;;18.20;57.32;100654.91;18435013;32;20123;-66
2022/05/04 06:48:45;;;;;;;7.62;3.33;;;;;;;19.26;53.37;100657.75;18410594;32;20105;-66
2022/05/04 06:58:49;;;;;;;6.53;2.83;;;;;;;20.09;50.54;100646.87;18369346;32;20370;-66
2022/05/04 07:08:53;;;;;;;6.78;2.67;;;;;;;20.94;46.36;100645.31;18365019;32;20106;-67
2022/05/04 07:18:56;;;;;;;6.18;2.35;;;;;;;21.01;48.11;100645.91;18409784;32;20097;-67
2022/05/04 07:29:01;;;;;;;3.20;1.87;;;;;;;24.59;36.82;100626.63;18365640;32;20370;-68
2022/05/04 07:39:04;;;;;;;5.28;2.33;;;;;;;25.99;32.32;100625.44;18365638;32;20101;-68
2022/05/04 07:49:09;;;;;;;5.35;2.58;;;;;;;24.49;35.34;100647.66;18365075;32;20164;-68
2022/05/04 07:59:12;;;;;;;4.55;2.20;;;;;;;22.03;42.14;100649.44;18365286;32;20098;-67
2022/05/04 08:09:17;;;;;;;3.70;2.00;;;;;;;22.81;42.57;100653.75;18349957;32;20105;-68
2022/05/04 08:19:21;;;;;;;4.28;1.87;;;;;;;23.81;36.92;100656.72;18364099;32;20088;-67
2022/05/04 08:29:25;;;;;;;4.35;2.35;;;;;;;23.81;37.38;100654.88;18350446;32;20098;-67
2022/05/04 08:39:28;;;;;;;3.95;1.98;;;;;;;23.60;40.21;100651.56;18368713;32;20115;-67
2022/05/04 08:49:34;;;;;;;4.15;1.80;;;;;;;23.18;37.99;100663.50;18371629;32;20082;-67
2022/05/04 08:59:37;;;;;;;3.62;2.00;;;;;;;24.37;35.20;100651.88;18357410;32;20476;-68
2022/05/04 09:09:46;;;;;;;3.40;1.80;;;;;;;24.90;35.45;100651.56;18370159;32;20093;-68
2022/05/04 09:30:14;;;;;;;3.62;1.73;;;;;;;24.86;35.04;100652.69;18368838;32;20438;-67
2022/05/04 09:50:40;;;;;;;;;;;;;;;23.99;35.83;100668.16;18369694;32;20097;-68
2022/05/04 10:00:44;;;;;;;2.42;1.45;;;;;;;24.94;33.59;100652.22;18369814;32;19969;-67
2022/05/04 10:10:50;;;;;;;3.22;1.50;;;;;;;25.07;34.47;100639.00;18305059;32;20571;-69
2022/05/04 10:21:01;;;;;;;2.55;1.55;;;;;;;24.22;37.95;100637.59;18305242;32;20090;-67
2022/05/04 10:31:09;;;;;;;2.97;1.40;;;;;;;24.60;34.22;100619.50;18305221;32;20433;-69
2022/05/04 10:41:13;;;;;;;2.85;1.60;;;;;;;25.20;29.22;100612.44;18303874;32;20102;-68
2022/05/04 10:51:20;;;;;;;4.50;1.65;;;;;;;24.97;30.07;100611.16;18304905;32;20108;-68
2022/05/04 11:01:25;;;;;;;3.40;1.30;;;;;;;25.08;32.03;100604.22;18303708;32;20120;-68
2022/05/04 11:11:30;;;;;;;2.65;1.45;;;;;;;25.57;31.02;100580.81;18367767;32;20089;-70
2022/05/04 11:21:34;;;;;;;4.32;1.50;;;;;;;25.96;31.46;100583.72;18353294;32;20097;-70
2022/05/04 11:31:43;;;;;;;4.15;2.25;;;;;;;25.01;32.58;100586.00;18366040;32;20093;-69
2022/05/04 11:41:46;;;;;;;5.12;1.90;;;;;;;25.92;28.59;100573.31;18366081;32;20115;-69
2022/05/04 11:51:56;;;;;;;3.53;1.77;;;;;;;25.79;27.60;100571.41;18365638;32;20097;-69
2022/05/04 12:02:00;;;;;;;2.12;1.42;;;;;;;24.97;27.92;100573.75;18365109;32;20125;-69
2022/05/04 12:12:06;;;;;;;1.75;1.33;;;;;;;25.53;30.48;100565.94;18364231;32;20097;-69
2022/05/04 12:22:09;;;;;;;4.80;1.60;;;;;;;26.99;25.71;100563.66;18350275;32;20465;-69
2022/05/04 12:42:46;;;;;;;2.40;1.20;;;;;;;26.98;25.50;100537.81;18164614;32;20134;-69
2022/05/04 12:52:52;;;;;;;2.15;1.67;;;;;;;25.50;27.91;100536.72;18150499;32;20122;-69
2022/05/04 13:02:55;;;;;;;4.20;1.80;;;;;;;24.76;31.92;100523.34;18159945;32;20458;-69
2022/05/04 13:13:00;;;;;;;3.47;1.58;;;;;;;24.70;33.22;100529.06;18229712;32;20101;-69
2022/05/04 13:23:09;;;;;;;3.22;1.70;;;;;;;24.71;31.41;100515.63;18302791;32;20366;-69
2022/05/04 13:33:14;;;;;;;3.80;1.50;;;;;;;26.08;29.99;100512.50;18304946;32;20120;-70
2022/05/04 13:43:19;;;;;;;3.85;1.70;;;;;;;26.04;28.98;100514.56;18307193;32;20104;-69
2022/05/04 13:53:24;;;;;;;2.62;1.48;;;;;;;26.34;29.11;100519.81;18305172;32;20129;-69
2022/05/04 14:03:27;;;;;;;3.78;1.87;;;;;;;25.99;32.30;100513.09;18331957;32;20106;-69
2022/05/04 14:13:32;;;;;;;4.93;1.90;;;;;;;25.28;32.29;100508.66;18433208;32;20093;-70
2022/05/04 14:23:35;;;;;;;3.78;1.85;;;;;;;26.01;32.84;100493.34;18432065;32;20097;-69
2022/05/04 14:33:40;;;;;;;3.00;1.65;;;;;;;25.75;33.00;100503.94;18432518;32;20101;-69
2022/05/04 14:43:43;;;;;;;6.68;1.90;;;;;;;25.47;29.73;100512.81;18418410;32;20361;-69
2022/05/04 14:53:51;;;;;;;3.10;1.55;;;;;;;25.13;29.99;100507.78;18430714;32;20097;-69
2022/05/04 15:14:18;;;;;;;;;;;;;;;24.34;34.54;100515.13;18378270;32;20111;-69
2022/05/04 15:24:21;;;;;;;2.42;1.50;;;;;;;24.27;35.21;100533.31;18430038;32;19982;-69
2022/05/04 15:34:26;;;;;;;3.45;1.52;;;;;;;24.37;34.62;100547.81;18430047;32;20122;-69
2022/05/04 15:44:29;;;;;;;3.80;1.50;;;;;;;25.01;32.72;100545.94;18431347;32;20096;-69
2022/05/04 15:54:34;;;;;;;2.25;1.30;;;;;;;23.36;34.55;100550.72;18430978;32;20090;-69
2022/05/04 16:04:37;;;;;;;2.22;1.27;;;;;;;22.66;35.37;100553.41;18412101;32;72416;-69
2022/05/04 16:14:42;;;;;;;2.90;1.42;;;;;;;21.88;38.56;100538.53;18429609;32;20097;-69
2022/05/04 16:24:45;;;;;;;2.17;1.60;;;;;;;22.47;37.88;100533.03;18429412;32;20108;-69
2022/05/04 16:34:50;;;;;;;2.95;1.60;;;;;;;22.06;38.88;100527.97;18414675;32;20119;-69
2022/05/04 16:45:13;;;;;;;3.00;1.60;;;;;;;22.39;38.82;100530.75;18412996;32;20112;-69
2022/05/04 16:55:17;;;;;;;2.47;1.40;;;;;;;22.70;37.38;100529.22;18412383;32;20093;-69
2022/05/04 17:05:21;;;;;;;3.35;1.55;;;;;;;22.61;37.74;100544.81;18431114;32;20123;-69
2022/05/04 17:15:25;;;;;;;3.22;1.37;;;;;;;22.10;38.98;100550.78;18397510;32;20093;-69
2022/05/04 17:25:28;;;;;;;3.97;1.30;;;;;;;22.11;38.05;100569.31;18371138;32;20093;-69
2022/05/04 17:45:54;;;;;;;4.20;1.67;;;;;;;21.40;42.25;100583.22;18429753;32;20449;-69
2022/05/04 17:55:59;;;;;;;2.05;1.40;;;;;;;20.97;43.33;100583.31;18434604;32;20108;-69
2022/05/04 18:06:06;;;;;;;4.12;1.73;;;;;;;20.56;45.54;100582.28;18432191;32;20097;-69
2022/05/04 18:16:11;;;;;;;3.62;1.65;;;;;;;20.09;47.41;100586.78;18432043;32;20417;-69
2022/05/04 18:26:14;;;;;;;6.15;2.22;;;;;;;19.45;49.46;100593.56;18432393;32;20097;-69
2022/05/04 18:36:30;;;;;;;6.97;2.50;;;;;;;18.63;53.23;100610.41;18417296;32;20115;-69
2022/05/04 18:46:33;;;;;;;5.85;2.42;;;;;;;18.30;54.33;100622.00;18430168;32;20101;-69
2022/05/04 18:56:39;;;;;;;5.97;2.62;;;;;;;17.64;56.26;100631.84;18429956;32;20107;-69
2022/05/04 19:06:43;;;;;;;4.57;2.50;;;;;;;17.46;56.75;100642.88;18414837;32;20097;-69
2022/05/04 19:16:47;;;;;;;8.15;3.70;;;;;;;17.68;56.17;100657.25;18416245;32;20097;-69
2022/05/04 19:26:51;;;;;;;7.90;3.80;;;;;;;17.64;56.78;100652.97;18415503;32;20162;-69
2022/05/04 19:36:59;;;;;;;8.43;3.83;;;;;;;16.84;60.14;100651.47;18430789;32;20088;-69
2022/05/04 19:47:04;;;;;;;7.97;3.70;;;;;;;16.77;60.50;100662.16;18415951;32;20109;-69
2022/05/04 19:57:09;;;;;;;9.75;3.78;;;;;;;16.45;61.87;100674.31;18429766;32;20669;-69
2022/05/04 20:07:12;;;;;;;8.80;4.00;;;;;;;16.37;62.94;100684.16;18414797;32;20085;-69
2022/05/04 20:17:16;;;;;;;10.25;4.10;;;;;;;16.72;61.22;100719.41;18413905;32;20097;-69
2022/05/04 20:27:20;;;;;;;9.70;4.30;;;;;;;16.49;62.50;100728.66;18426693;32;20172;-69
2022/05/04 20:47:45;;;;;;;;;;;;;;;16.20;63.79;100743.31;18429468;32;20115;-69
2022/05/04 20:57:49;;;;;;;9.35;3.97;;;;;;;15.94;65.16;100752.63;18428237;32;19977;-69
2022/05/04 21:07:53;;;;;;;9.50;3.95;;;;;;;15.71;65.69;100758.28;18427692;32;20104;-68
2022/05/04 21:17:57;;;;;;;9.82;4.15;;;;;;;15.99;64.70;100775.34;18428389;32;20119;-69
2022/05/04 21:28:20;;;;;;;9.65;4.68;;;;;;;16.00;64.87;100762.16;18426836;32;20379;-69
2022/05/04 21:38:25;;;;;;;9.60;4.07;;;;;;;15.58;66.38;100765.50;18426119;32;20098;-69
2022/05/04 21:48:28;;;;;;;8.60;3.92;;;;;;;15.72;65.44;100767.91;18433873;32;20111;-69
2022/05/04 21:58:32;;;;;;;9.45;4.40;;;;;;;15.04;68.49;100775.13;18435365;32;20085;-69
2022/05/04 22:08:36;;;;;;;8.70;4.25;;;;;;;15.24;68.21;100787.09;18434589;32;20092;-69
2022/05/04 22:18:41;;;;;;;8.63;4.28;;;;;;;15.61;67.37;100797.03;18434722;32;20111;-69
2022/05/04 22:28:44;;;;;;;9.35;4.40;;;;;;;15.95;66.18;100795.59;18420715;32;20369;-69
2022/05/04 22:38:49;;;;;;;10.50;4.50;;;;;;;15.68;67.18;100798.66;18420815;32;20370;-69
2022/05/04 22:48:52;;;;;;;8.88;4.22;;;;;;;16.15;65.19;100792.59;18433814;32;20516;-69
2022/05/04 22:58:56;;;;;;;6.82;4.05;;;;;;;15.60;67.83;100790.03;18432276;32;20148;-69
2022/05/04 23:08:59;;;;;;;9.50;4.22;;;;;;;15.51;68.46;100795.44;18433136;32;20425;-69
2022/05/04 23:19:04;;;;;;;10.30;4.80;;;;;;;16.25;65.30;100787.16;18433231;32;20097;-69
2022/05/04 23:29:07;;;;;;;8.00;4.10;;;;;;;15.86;67.22;100791.34;18432957;32;20115;-69
2022/05/04 23:39:12;;;;;;;9.32;4.60;;;;;;;15.61;68.22;100783.88;18432734;32;20116;-69
2022/05/04 23:49:15;;;;;;;9.95;4.40;;;;;;;15.50;68.82;100789.28;18432059;32;20100;-69
2022/05/04 23:59:20;;;;;;;10.40;4.10;;;;;;;15.70;68.11;100805.66;18417542;32;20107;-69
